Time;durP1;ratioP1;P1;durP2;ratioP2;P2;SDS_P1;SDS_P2;PMS_P1;PMS_P2;Temp;Humidity;BMP_temperature;BMP_pressure;BME280_temperature;BME280_humidity;BME280_pressure;Samples;Min_cycle;Max_cycle;Signal;HPM_P1;HPM_P2
2022/06/05 00:01:29;;;;;;;2.38;2.00;;;;;;;;;;5014113;28;20293;-81
2022/06/05 00:04:08;;;;;;;2.20;1.75;;;;;;;;;;5013802;28;20606;-80
2022/06/05 00:06:41;;;;;;;1.80;1.70;;;;;;;;;;5014452;28;20281;-80
2022/06/05 00:09:30;;;;;;;3.78;2.05;;;;;;;;;;5014364;28;20207;-78
2022/06/05 00:12:07;;;;;;;2.10;2.00;;;;;;;;;;5013565;28;20274;-78
2022/06/05 00:14:37;;;;;;;2.08;1.88;;;;;;;;;;5014528;28;20293;-81
2022/06/05 00:17:09;;;;;;;2.28;2.08;;;;;;;;;;5014145;28;20234;-78
2022/06/05 00:19:38;;;;;;;2.53;2.33;;;;;;;;;;5013611;28;20694;-80
2022/06/05 00:22:07;;;;;;;2.20;2.10;;;;;;;;;;5013197;28;20306;-79
2022/06/05 00:24:34;;;;;;;2.50;2.00;;;;;;;;;;5014399;28;20209;-79
2022/06/05 00:27:07;;;;;;;2.83;2.63;;;;;;;;;;5014003;28;20226;-78
2022/06/05 00:29:47;;;;;;;2.53;2.33;;;;;;;;;;5014742;28;20187;-78
2022/06/05 00:32:22;;;;;;;3.25;2.80;;;;;;;;;;5015623;28;20293;-79
2022/06/05 00:34:51;;;;;;;2.88;2.25;;;;;;;;;;5014490;28;20673;-79
2022/06/05 00:37:31;;;;;;;5.78;3.25;;;;;;;;;;5014114;28;20234;-80
2022/06/05 00:40:30;;;;;;;4.28;3.47;;;;;;;;;;5014577;28;20207;-79
2022/06/05 00:42:58;;;;;;;3.45;2.67;;;;;;;;;;5013965;28;20294;-80
2022/06/05 00:45:28;;;;;;;3.03;2.60;;;;;;;;;;5014202;28;20758;-79
2022/06/05 00:47:55;;;;;;;2.50;2.30;;;;;;;;;;5013896;28;20317;-79
2022/06/05 00:50:29;;;;;;;2.97;2.78;;;;;;;;;;5014417;28;20234;-79
2022/06/05 00:53:02;;;;;;;3.30;2.60;;;;;;;;;;5013603;28;20685;-78
2022/06/05 00:55:36;;;;;;;2.83;2.63;;;;;;;;;;5014167;28;20231;-78
2022/06/05 00:58:03;;;;;;;3.08;2.83;;;;;;;;;;5013969;28;20317;-79
2022/06/05 01:00:33;;;;;;;2.30;2.10;;;;;;;;;;5013186;28;20290;-79
2022/06/05 01:03:05;;;;;;;2.50;2.30;;;;;;;;;;5013729;28;20650;-78
2022/06/05 01:05:35;;;;;;;2.05;1.95;;;;;;;;;;5013032;28;20208;-78
2022/06/05 01:08:03;;;;;;;1.98;1.88;;;;;;;;;;5013846;28;20218;-79
2022/06/05 01:10:41;;;;;;;1.92;1.83;;;;;;;;;;5014150;28;20271;-79
2022/06/05 01:13:22;;;;;;;2.30;2.20;;;;;;;;;;5022952;28;20202;-77
2022/06/05 01:15:57;;;;;;;2.05;1.95;;;;;;;;;;5027403;28;20253;-77
2022/06/05 01:18:32;;;;;;;3.00;2.22;;;;;;;;;;5014490;28;20269;-78
2022/06/05 01:21:34;;;;;;;2.05;1.95;;;;;;;;;;5014791;28;20234;-79
2022/06/05 01:24:18;;;;;;;2.92;2.10;;;;;;;;;;5014361;28;20237;-79
2022/06/05 01:26:49;;;;;;;2.58;2.13;;;;;;;;;;5013890;28;20290;-78
2022/06/05 01:29:21;;;;;;;2.05;1.95;;;;;;;;;;5012972;28;20230;-78
2022/06/05 01:31:54;;;;;;;1.90;1.80;;;;;;;;;;5013577;28;20245;-79
2022/06/05 01:34:25;;;;;;;2.10;2.00;;;;;;;;;;5013779;28;20202;-78
2022/06/05 01:36:58;;;;;;;1.77;1.67;;;;;;;;;;5013503;28;20258;-79
2022/06/05 01:39:30;;;;;;;2.05;1.92;;;;;;;;;;5013219;28;20294;-77
2022/06/05 01:42:04;;;;;;;2.00;1.90;;;;;;;;;;5013305;28;20234;-78
2022/06/05 01:44:35;;;;;;;2.03;1.92;;;;;;;;;;5013471;28;20237;-78
2022/06/05 01:47:09;;;;;;;1.92;1.83;;;;;;;;;;5013111;28;20251;-79
2022/06/05 01:49:40;;;;;;;1.83;1.73;;;;;;;;;;5065201;22;20241;-83
2022/06/05 01:52:16;;;;;;;2.00;1.90;;;;;;;;;;5052406;28;20702;-83
2022/06/05 01:54:48;;;;;;;2.45;1.90;;;;;;;;;;5056062;28;20260;-83
2022/06/05 01:57:19;;;;;;;2.08;1.98;;;;;;;;;;5055384;28;20297;-83
2022/06/05 01:59:49;;;;;;;2.15;1.92;;;;;;;;;;5074951;28;20640;-83
2022/06/05 02:02:20;;;;;;;1.77;1.67;;;;;;;;;;5075530;28;20197;-83
2022/06/05 02:04:51;;;;;;;1.95;1.85;;;;;;;;;;5080544;28;20284;-83
2022/06/05 02:07:23;;;;;;;3.08;2.55;;;;;;;;;;5078501;28;20716;-83
2022/06/05 02:09:54;;;;;;;2.00;1.90;;;;;;;;;;5079442;28;20232;-83
2022/06/05 02:12:23;;;;;;;1.85;1.75;;;;;;;;;;5079101;28;20669;-82
2022/06/05 02:14:51;;;;;;;1.83;1.73;;;;;;;;;;5078692;28;20215;-82
2022/06/05 02:17:18;;;;;;;2.33;2.13;;;;;;;;;;5077745;28;20674;-82
2022/06/05 02:19:46;;;;;;;2.28;2.08;;;;;;;;;;5052580;28;20309;-83
2022/06/05 02:22:20;;;;;;;2.33;2.20;;;;;;;;;;5038160;28;20242;-83
2022/06/05 02:24:47;;;;;;;2.22;2.05;;;;;;;;;;5039023;28;20309;-83
2022/06/05 02:27:17;;;;;;;2.22;2.03;;;;;;;;;;5039268;28;20264;-81
2022/06/05 02:29:46;;;;;;;2.05;1.95;;;;;;;;;;5039828;28;20264;-83
2022/06/05 02:32:34;;;;;;;1.90;1.80;;;;;;;;;;5040461;28;20266;-81
2022/06/05 02:35:14;;;;;;;2.50;2.30;;;;;;;;;;5038252;28;20643;-83
2022/06/05 02:37:57;;;;;;;2.70;2.50;;;;;;;;;;5038104;28;20676;-83
2022/06/05 02:40:30;;;;;;;1.90;1.80;;;;;;;;;;5039340;28;20238;-82
2022/06/05 02:43:10;;;;;;;2.28;2.08;;;;;;;;;;5037486;28;20270;-83
2022/06/05 02:45:51;;;;;;;2.33;2.13;;;;;;;;;;5036952;28;20198;-82
2022/06/05 02:48:27;;;;;;;1.95;1.85;;;;;;;;;;5036409;28;20591;-83
2022/06/05 02:50:59;;;;;;;2.10;2.00;;;;;;;;;;5038275;28;20233;-82
2022/06/05 02:53:27;;;;;;;1.92;1.83;;;;;;;;;;5035784;28;20198;-82
2022/06/05 02:55:54;;;;;;;2.22;2.13;;;;;;;;;;5036415;28;20302;-83
2022/06/05 02:58:22;;;;;;;2.10;1.90;;;;;;;;;;5036382;28;20309;-82
2022/06/05 03:03:32;;;;;;;1.90;1.80;;;;;;;;;;5035372;28;20561;-82
2022/06/05 03:06:03;;;;;;;2.50;1.90;;;;;;;;;;5035670;28;20289;-81
2022/06/05 03:08:31;;;;;;;1.88;1.77;;;;;;;;;;5036032;28;20306;-83
2022/06/05 03:10:58;;;;;;;2.05;1.95;;;;;;;;;;5034161;28;20206;-83
2022/06/05 03:13:26;;;;;;;2.00;1.90;;;;;;;;;;5034432;28;20209;-83
2022/06/05 03:15:55;;;;;;;1.98;1.88;;;;;;;;;;5035548;28;20226;-82
2022/06/05 03:18:22;;;;;;;1.90;1.80;;;;;;;;;;5035223;28;20706;-82
2022/06/05 03:20:50;;;;;;;2.38;2.17;;;;;;;;;;5035250;28;20233;-82
2022/06/05 03:23:17;;;;;;;2.00;1.90;;;;;;;;;;5034357;28;20290;-82
2022/06/05 03:25:45;;;;;;;1.85;1.75;;;;;;;;;;5035127;28;20202;-83
2022/06/05 03:28:12;;;;;;;2.13;1.70;;;;;;;;;;5033595;28;20246;-82
2022/06/05 03:30:41;;;;;;;2.50;2.40;;;;;;;;;;5035132;28;20237;-83
2022/06/05 03:33:11;;;;;;;2.35;2.15;;;;;;;;;;5035305;28;20230;-82
2022/06/05 03:35:39;;;;;;;2.10;2.00;;;;;;;;;;5036414;28;20194;-81
2022/06/05 03:38:07;;;;;;;2.20;2.10;;;;;;;;;;5036591;28;20652;-81
2022/06/05 03:40:35;;;;;;;2.03;1.92;;;;;;;;;;5035021;28;20640;-82
2022/06/05 03:43:04;;;;;;;2.05;1.95;;;;;;;;;;5034443;28;20745;-81
2022/06/05 03:45:31;;;;;;;6.15;3.20;;;;;;;;;;5035249;28;20690;-83
2022/06/05 03:47:59;;;;;;;2.60;2.50;;;;;;;;;;5035754;28;20371;-82
2022/06/05 03:50:28;;;;;;;2.38;2.17;;;;;;;;;;5040286;28;20221;-82
2022/06/05 03:52:55;;;;;;;2.50;2.30;;;;;;;;;;5039878;28;20226;-84
2022/06/05 03:55:25;;;;;;;2.03;1.90;;;;;;;;;;5039092;28;20245;-81
2022/06/05 03:57:53;;;;;;;1.90;1.80;;;;;;;;;;5039747;28;20246;-82
2022/06/05 04:00:22;;;;;;;2.35;2.20;;;;;;;;;;5039205;28;20222;-82
2022/06/05 04:02:50;;;;;;;2.00;1.90;;;;;;;;;;5043800;28;20213;-82
2022/06/05 04:05:21;;;;;;;2.30;2.20;;;;;;;;;;5040834;28;20199;-82
2022/06/05 04:07:50;;;;;;;4.15;2.30;;;;;;;;;;5037481;28;20226;-81
2022/06/05 04:10:19;;;;;;;2.03;1.92;;;;;;;;;;5040520;28;20539;-83
2022/06/05 04:12:47;;;;;;;1.90;1.80;;;;;;;;;;5037122;28;20226;-82
2022/06/05 04:15:15;;;;;;;2.28;2.17;;;;;;;;;;5036987;28;20233;-82
2022/06/05 04:17:42;;;;;;;2.47;2.13;;;;;;;;;;5037549;28;20261;-82
2022/06/05 04:20:12;;;;;;;1.83;1.73;;;;;;;;;;5038073;28;20237;-83
2022/06/05 04:22:41;;;;;;;1.77;1.67;;;;;;;;;;5040717;28;20209;-82
2022/06/05 04:25:14;;;;;;;1.77;1.67;;;;;;;;;;5039305;28;20210;-82
2022/06/05 04:27:42;;;;;;;1.88;1.77;;;;;;;;;;5035639;28;20577;-83
2022/06/05 04:30:11;;;;;;;2.08;1.98;;;;;;;;;;5037550;28;20213;-83
2022/06/05 04:32:38;;;;;;;2.00;1.90;;;;;;;;;;5037596;28;20218;-83
2022/06/05 04:35:08;;;;;;;1.80;1.70;;;;;;;;;;5038122;28;20198;-82
2022/06/05 04:37:36;;;;;;;1.92;1.83;;;;;;;;;;5037843;28;20202;-83
2022/06/05 04:40:05;;;;;;;2.00;1.90;;;;;;;;;;5038422;28;20190;-83
2022/06/05 04:42:34;;;;;;;2.08;1.98;;;;;;;;;;5037903;28;20238;-83
2022/06/05 04:45:01;;;;;;;2.50;2.40;;;;;;;;;;5037720;28;20202;-82
2022/06/05 04:47:28;;;;;;;2.30;2.10;;;;;;;;;;5035873;28;20630;-83
2022/06/05 04:49:56;;;;;;;2.88;2.67;;;;;;;;;;5034206;28;20225;-82
2022/06/05 04:52:23;;;;;;;1.90;1.80;;;;;;;;;;5033777;28;20237;-82
2022/06/05 04:54:51;;;;;;;1.77;1.67;;;;;;;;;;5035002;28;20705;-82
2022/06/05 04:57:18;;;;;;;1.58;1.48;;;;;;;;;;5037654;28;20206;-82
2022/06/05 04:59:47;;;;;;;1.67;1.58;;;;;;;;;;5037421;28;20730;-81
2022/06/05 05:02:16;;;;;;;1.73;1.60;;;;;;;;;;5037630;28;20241;-82
2022/06/05 05:04:47;;;;;;;2.10;1.60;;;;;;;;;;5038658;28;20213;-82
2022/06/05 05:07:14;;;;;;;1.70;1.60;;;;;;;;;;5037675;28;20206;-81
2022/06/05 05:09:42;;;;;;;1.60;1.50;;;;;;;;;;5038839;28;20282;-81
2022/06/05 05:12:10;;;;;;;1.63;1.52;;;;;;;;;;5036709;28;20237;-81
2022/06/05 05:14:39;;;;;;;1.98;1.88;;;;;;;;;;5039730;28;20876;-81
2022/06/05 05:17:07;;;;;;;1.75;1.65;;;;;;;;;;5038499;28;20203;-81
2022/06/05 05:19:35;;;;;;;2.72;2.50;;;;;;;;;;5037818;28;20261;-81
2022/06/05 05:22:03;;;;;;;1.80;1.70;;;;;;;;;;5037018;28;20244;-81
2022/06/05 05:24:31;;;;;;;1.77;1.67;;;;;;;;;;5036030;28;20266;-81
2022/06/05 05:26:59;;;;;;;3.20;2.90;;;;;;;;;;5033226;28;20234;-80
2022/06/05 05:29:26;;;;;;;2.05;1.92;;;;;;;;;;5036923;28;20241;-82
2022/06/05 05:31:54;;;;;;;1.80;1.70;;;;;;;;;;5034555;28;20226;-81
2022/06/05 05:34:23;;;;;;;2.45;2.25;;;;;;;;;;5035723;28;20205;-83
2022/06/05 05:36:50;;;;;;;2.00;1.90;;;;;;;;;;5037225;28;20202;-82
2022/06/05 05:42:05;;;;;;;1.50;1.45;;;;;;;;;;5038372;28;20209;-81
2022/06/05 05:44:36;;;;;;;2.10;2.00;;;;;;;;;;5038192;28;20230;-82
2022/06/05 05:47:06;;;;;;;2.78;2.67;;;;;;;;;;5038372;28;20203;-82
2022/06/05 05:49:35;;;;;;;2.60;2.40;;;;;;;;;;5037177;28;20234;-81
2022/06/05 05:52:03;;;;;;;3.03;2.83;;;;;;;;;;5036039;28;20229;-82
2022/06/05 05:54:31;;;;;;;2.70;2.50;;;;;;;;;;5037853;28;20701;-81
2022/06/05 05:56:58;;;;;;;2.50;2.30;;;;;;;;;;5037473;28;20637;-82
2022/06/05 05:59:26;;;;;;;2.22;2.13;;;;;;;;;;5036924;28;20262;-82
2022/06/05 06:01:54;;;;;;;1.83;1.73;;;;;;;;;;5036911;28;20242;-82
2022/06/05 06:04:21;;;;;;;2.28;2.15;;;;;;;;;;5036533;28;20568;-82
2022/06/05 06:06:50;;;;;;;2.03;1.92;;;;;;;;;;5036363;28;20249;-82
2022/06/05 06:09:19;;;;;;;2.00;1.90;;;;;;;;;;5037347;28;20245;-82
2022/06/05 06:11:48;;;;;;;2.55;2.33;;;;;;;;;;5035748;28;20285;-91
2022/06/05 06:14:16;;;;;;;2.70;2.60;;;;;;;;;;5040931;28;20210;-82
2022/06/05 06:16:43;;;;;;;2.85;2.65;;;;;;;;;;5048370;28;20717;-82
2022/06/05 06:19:11;;;;;;;3.08;2.88;;;;;;;;;;5042050;28;20253;-83
2022/06/05 06:21:39;;;;;;;2.88;2.67;;;;;;;;;;5040078;28;20210;-83
2022/06/05 06:24:08;;;;;;;2.00;1.90;;;;;;;;;;5041532;28;20198;-83
2022/06/05 06:26:35;;;;;;;2.28;2.08;;;;;;;;;;5040599;28;20245;-83
2022/06/05 06:29:03;;;;;;;2.03;1.92;;;;;;;;;;5038840;28;20225;-82
2022/06/05 06:31:31;;;;;;;2.00;1.90;;;;;;;;;;5039567;28;20233;-82
2022/06/05 06:33:58;;;;;;;2.10;1.95;;;;;;;;;;5038371;28;20202;-82
2022/06/05 06:36:26;;;;;;;2.15;2.05;;;;;;;;;;5038219;28;20241;-83
2022/06/05 06:38:53;;;;;;;2.20;2.10;;;;;;;;;;5038151;28;20258;-83
2022/06/05 06:41:23;;;;;;;3.78;2.85;;;;;;;;;;5037203;28;20624;-83
2022/06/05 06:43:50;;;;;;;3.42;3.17;;;;;;;;;;5042034;28;20225;-83
2022/06/05 06:46:19;;;;;;;3.45;3.15;;;;;;;;;;5054785;28;20203;-84
2022/06/05 06:48:46;;;;;;;3.20;2.70;;;;;;;;;;5054462;28;20241;-85
2022/06/05 06:51:15;;;;;;;2.95;2.75;;;;;;;;;;5052633;28;20211;-82
2022/06/05 06:53:43;;;;;;;2.70;2.50;;;;;;;;;;5045202;28;20215;-81
2022/06/05 06:56:14;;;;;;;2.85;2.65;;;;;;;;;;5041209;28;20261;-82
2022/06/05 06:58:44;;;;;;;2.65;2.50;;;;;;;;;;5043524;28;20241;-81
2022/06/05 07:01:12;;;;;;;3.15;2.88;;;;;;;;;;5040413;28;20268;-81
2022/06/05 07:03:40;;;;;;;2.97;2.78;;;;;;;;;;5038640;28;20236;-81
2022/06/05 07:06:11;;;;;;;3.38;3.17;;;;;;;;;;5039954;28;20234;-82
2022/06/05 07:08:39;;;;;;;3.35;3.08;;;;;;;;;;5041518;28;20589;-82
2022/06/05 07:11:07;;;;;;;2.92;2.72;;;;;;;;;;5041775;28;20255;-82
2022/06/05 07:13:36;;;;;;;3.40;3.20;;;;;;;;;;5040021;28;20245;-82
2022/06/05 07:16:08;;;;;;;3.78;3.45;;;;;;;;;;5040608;28;20198;-82
2022/06/05 07:18:35;;;;;;;3.42;3.22;;;;;;;;;;5039804;28;20240;-82
2022/06/05 07:21:10;;;;;;;3.35;2.75;;;;;;;;;;5040350;28;20254;-82
2022/06/05 07:23:37;;;;;;;2.88;2.67;;;;;;;;;;5039565;28;20241;-82
2022/06/05 07:26:07;;;;;;;2.75;2.55;;;;;;;;;;5039225;28;20332;-84
2022/06/05 07:28:35;;;;;;;3.95;3.70;;;;;;;;;;5037852;28;20223;-83
2022/06/05 07:31:05;;;;;;;4.38;3.97;;;;;;;;;;5038837;28;20226;-84
2022/06/05 07:33:34;;;;;;;3.78;3.47;;;;;;;;;;5038078;28;20202;-84
2022/06/05 07:36:03;;;;;;;3.33;3.13;;;;;;;;;;5038782;28;20213;-84
2022/06/05 07:38:32;;;;;;;3.60;3.40;;;;;;;;;;5038689;28;20697;-83
2022/06/05 07:41:00;;;;;;;3.38;3.17;;;;;;;;;;5036863;28;20309;-83
2022/06/05 07:43:27;;;;;;;3.67;3.47;;;;;;;;;;5035434;28;20585;-84
2022/06/05 07:45:56;;;;;;;3.90;3.60;;;;;;;;;;5034206;28;20236;-85
2022/06/05 07:48:25;;;;;;;3.25;3.05;;;;;;;;;;5056507;22;20226;-84
2022/06/05 07:56:32;;;;;;;4.20;3.90;;;;;;;;;;5050772;28;20221;-83
2022/06/05 07:59:00;;;;;;;4.32;4.03;;;;;;;;;;5035000;28;20252;-83
2022/06/05 08:01:28;;;;;;;4.10;3.70;;;;;;;;;;5035321;28;20643;-84
2022/06/05 08:03:57;;;;;;;5.55;5.15;;;;;;;;;;5034744;28;20245;-84
2022/06/05 08:06:24;;;;;;;4.53;4.22;;;;;;;;;;5035895;28;20233;-82
2022/06/05 08:08:52;;;;;;;5.10;4.65;;;;;;;;;;5035679;28;20218;-84
2022/06/05 08:11:19;;;;;;;5.32;4.93;;;;;;;;;;5035962;28;20605;-82
2022/06/05 08:13:47;;;;;;;4.57;4.20;;;;;;;;;;5036705;28;20296;-83
2022/06/05 08:16:15;;;;;;;4.38;3.97;;;;;;;;;;5037296;28;20234;-82
2022/06/05 08:18:42;;;;;;;4.22;3.88;;;;;;;;;;5040931;28;20221;-83
2022/06/05 08:21:11;;;;;;;4.75;4.43;;;;;;;;;;5047139;28;20304;-82
2022/06/05 08:23:39;;;;;;;6.05;5.53;;;;;;;;;;5055492;28;20225;-83
2022/06/05 08:26:07;;;;;;;4.75;4.45;;;;;;;;;;5056137;28;20229;-82
2022/06/05 08:28:36;;;;;;;4.40;4.10;;;;;;;;;;5055218;28;20225;-82
2022/06/05 08:31:04;;;;;;;3.95;3.75;;;;;;;;;;5057103;28;20215;-83
2022/06/05 08:33:31;;;;;;;4.60;4.30;;;;;;;;;;5055976;28;20212;-82
2022/06/05 08:35:59;;;;;;;4.47;4.18;;;;;;;;;;5056998;28;20202;-82
2022/06/05 08:41:37;;;;;;;4.28;3.97;;;;;;;;;;5056372;28;20712;-83
2022/06/05 08:44:18;;;;;;;4.03;3.72;;;;;;;;;;5057288;28;20623;-82
2022/06/05 08:46:50;;;;;;;3.90;3.67;;;;;;;;;;5056282;28;20204;-83
2022/06/05 08:49:31;;;;;;;3.90;3.60;;;;;;;;;;5045621;28;20280;-82
2022/06/05 08:52:07;;;;;;;3.55;3.35;;;;;;;;;;5033405;28;20281;-83
2022/06/05 08:54:42;;;;;;;3.00;2.88;;;;;;;;;;5036221;28;20626;-82
2022/06/05 08:57:16;;;;;;;3.60;3.40;;;;;;;;;;5035893;28;20213;-82
2022/06/05 08:59:48;;;;;;;3.67;3.47;;;;;;;;;;5035604;28;20275;-82
2022/06/05 09:02:23;;;;;;;3.75;3.45;;;;;;;;;;5036375;28;20257;-83
2022/06/05 09:04:56;;;;;;;4.43;4.13;;;;;;;;;;5038001;28;20214;-84
2022/06/05 09:07:30;;;;;;;3.28;3.08;;;;;;;;;;5036737;28;20237;-82
2022/06/05 09:10:04;;;;;;;3.88;3.58;;;;;;;;;;5037319;28;20213;-84
2022/06/05 09:12:39;;;;;;;3.53;3.33;;;;;;;;;;5038652;28;20285;-84
2022/06/05 09:15:17;;;;;;;3.38;3.17;;;;;;;;;;5040623;28;20300;-83
2022/06/05 09:17:53;;;;;;;3.45;3.25;;;;;;;;;;5040783;28;20222;-84
2022/06/05 09:20:21;;;;;;;3.63;2.97;;;;;;;;;;5021955;28;20206;-83
2022/06/05 09:22:57;;;;;;;3.15;2.95;;;;;;;;;;5019136;28;20634;-83
2022/06/05 09:25:44;;;;;;;2.78;2.67;;;;;;;;;;5019577;28;20289;-84
2022/06/05 09:28:37;;;;;;;3.42;3.22;;;;;;;;;;5020546;28;20246;-84
2022/06/05 09:31:29;;;;;;;3.05;2.85;;;;;;;;;;5018682;28;20234;-83
2022/06/05 09:33:59;;;;;;;2.90;2.70;;;;;;;;;;5017708;28;20707;-82
2022/06/05 09:36:28;;;;;;;4.35;4.05;;;;;;;;;;5018934;28;20679;-83
2022/06/05 09:38:58;;;;;;;3.40;3.10;;;;;;;;;;5018123;28;20308;-82
2022/06/05 09:41:41;;;;;;;2.80;2.60;;;;;;;;;;5018290;28;20266;-83
2022/06/05 09:44:41;;;;;;;2.97;2.78;;;;;;;;;;5018441;28;20175;-83
2022/06/05 09:47:17;;;;;;;2.83;2.63;;;;;;;;;;5019504;28;20242;-83
2022/06/05 09:49:49;;;;;;;2.60;2.50;;;;;;;;;;5031559;28;20320;-84
2022/06/05 09:52:20;;;;;;;3.08;2.88;;;;;;;;;;5037668;28;20205;-83
2022/06/05 09:54:50;;;;;;;3.00;2.80;;;;;;;;;;5034516;28;20261;-83
2022/06/05 10:00:31;;;;;;;3.33;3.13;;;;;;;;;;5036422;28;20328;-85
2022/06/05 10:03:04;;;;;;;3.30;3.00;;;;;;;;;;5035637;28;20324;-83
2022/06/05 10:05:34;;;;;;;3.17;2.97;;;;;;;;;;5036110;28;20233;-84
2022/06/05 10:08:07;;;;;;;2.60;2.50;;;;;;;;;;5035594;28;20294;-84
2022/06/05 10:10:38;;;;;;;3.60;3.30;;;;;;;;;;5035270;28;20582;-83
2022/06/05 10:13:16;;;;;;;2.92;2.72;;;;;;;;;;5035337;28;20209;-84
2022/06/05 10:15:52;;;;;;;3.55;3.25;;;;;;;;;;5036284;28;20232;-82
2022/06/05 10:18:25;;;;;;;4.82;3.53;;;;;;;;;;5036876;28;20225;-83
2022/06/05 10:20:58;;;;;;;3.03;2.83;;;;;;;;;;5039610;28;20226;-82
2022/06/05 10:23:52;;;;;;;3.88;3.58;;;;;;;;;;5036731;28;20199;-85
2022/06/05 10:26:31;;;;;;;3.72;3.38;;;;;;;;;;5036839;28;20198;-84
2022/06/05 10:29:23;;;;;;;4.15;3.75;;;;;;;;;;5037121;28;20305;-84
2022/06/05 10:31:58;;;;;;;3.20;3.00;;;;;;;;;;5034741;28;20216;-85
2022/06/05 10:34:36;;;;;;;3.05;2.85;;;;;;;;;;5038485;28;20241;-84
2022/06/05 10:37:22;;;;;;;3.00;2.80;;;;;;;;;;5037618;28;20221;-85
2022/06/05 10:40:12;;;;;;;3.25;3.05;;;;;;;;;;5037402;28;20218;-84
2022/06/05 10:42:52;;;;;;;4.25;3.70;;;;;;;;;;5036093;28;20262;-84
2022/06/05 10:45:41;;;;;;;3.97;3.67;;;;;;;;;;5036240;28;20206;-84
2022/06/05 10:48:33;;;;;;;3.38;3.17;;;;;;;;;;5036920;28;20659;-84
2022/06/05 10:51:06;;;;;;;3.80;3.53;;;;;;;;;;5017129;28;20238;-85
2022/06/05 10:53:43;;;;;;;3.47;3.28;;;;;;;;;;5015007;28;20254;-84
2022/06/05 10:56:24;;;;;;;2.83;2.72;;;;;;;;;;5017024;28;20199;-86
2022/06/05 10:58:57;;;;;;;2.60;2.50;;;;;;;;;;5016447;28;20223;-85
2022/06/05 11:01:46;;;;;;;3.00;2.80;;;;;;;;;;5015966;28;20290;-85
2022/06/05 11:04:25;;;;;;;2.80;2.60;;;;;;;;;;5016050;28;20226;-86
2022/06/05 11:07:00;;;;;;;2.95;2.75;;;;;;;;;;5016460;28;20195;-84
2022/06/05 11:09:40;;;;;;;2.60;2.50;;;;;;;;;;5016974;28;20242;-84
2022/06/05 11:15:11;;;;;;;2.50;2.38;;;;;;;;;;5016299;28;20199;-86
2022/06/05 11:17:50;;;;;;;2.72;2.53;;;;;;;;;;5016400;28;20209;-84
2022/06/05 11:20:21;;;;;;;2.78;2.63;;;;;;;;;;5015676;28;20210;-83
2022/06/05 11:22:56;;;;;;;3.22;3.03;;;;;;;;;;5015207;28;20233;-84
2022/06/05 11:25:29;;;;;;;3.10;2.90;;;;;;;;;;5016084;28;20237;-84
2022/06/05 11:28:21;;;;;;;2.65;2.55;;;;;;;;;;5015429;28;20242;-83
2022/06/05 11:31:03;;;;;;;2.53;2.42;;;;;;;;;;5015123;28;20203;-84
2022/06/05 11:33:35;;;;;;;2.40;2.20;;;;;;;;;;5015101;28;20257;-83
2022/06/05 11:36:14;;;;;;;3.50;3.30;;;;;;;;;;5015923;28;20242;-83
2022/06/05 11:38:49;;;;;;;4.20;3.90;;;;;;;;;;5015925;28;20254;-84
2022/06/05 11:41:26;;;;;;;3.33;3.13;;;;;;;;;;5015747;28;20195;-84
2022/06/05 11:44:17;;;;;;;3.72;3.45;;;;;;;;;;5015686;28;20265;-83
2022/06/05 11:46:53;;;;;;;3.63;3.42;;;;;;;;;;5015339;28;20195;-83
2022/06/05 11:49:31;;;;;;;4.10;3.70;;;;;;;;;;5023783;28;20261;-83
2022/06/05 11:52:07;;;;;;;3.65;3.45;;;;;;;;;;5034198;28;20655;-84
2022/06/05 11:54:42;;;;;;;4.05;3.75;;;;;;;;;;5032972;28;20194;-84
2022/06/05 11:57:15;;;;;;;4.05;3.75;;;;;;;;;;5035321;28;20210;-83
2022/06/05 11:59:50;;;;;;;3.88;3.67;;;;;;;;;;5034409;28;20225;-83
2022/06/05 12:02:39;;;;;;;4.10;3.80;;;;;;;;;;5036453;28;20253;-82
2022/06/05 12:05:18;;;;;;;3.90;3.60;;;;;;;;;;5036672;28;20202;-82
2022/06/05 12:07:48;;;;;;;4.30;4.00;;;;;;;;;;5036318;28;20609;-83
2022/06/05 12:10:26;;;;;;;4.30;4.10;;;;;;;;;;5038316;28;20253;-83
2022/06/05 12:13:06;;;;;;;4.20;3.90;;;;;;;;;;5033946;28;20629;-84
2022/06/05 12:15:50;;;;;;;5.00;4.60;;;;;;;;;;5034536;28;20206;-84
2022/06/05 12:18:23;;;;;;;4.15;3.85;;;;;;;;;;5034444;28;20745;-85
2022/06/05 12:20:58;;;;;;;4.40;4.10;;;;;;;;;;5017047;28;20647;-84
2022/06/05 12:23:32;;;;;;;4.70;4.40;;;;;;;;;;5017365;28;20202;-83
2022/06/05 12:26:02;;;;;;;4.65;4.35;;;;;;;;;;5016485;28;20206;-84
2022/06/05 12:28:36;;;;;;;5.43;5.03;;;;;;;;;;5015931;28;20302;-84
2022/06/05 12:31:14;;;;;;;4.85;4.43;;;;;;;;;;5015185;28;20245;-83
2022/06/05 12:33:47;;;;;;;4.88;4.57;;;;;;;;;;5015130;28;20201;-83
2022/06/05 12:36:28;;;;;;;4.53;4.22;;;;;;;;;;5015102;28;20270;-83
2022/06/05 12:39:00;;;;;;;4.38;4.07;;;;;;;;;;5016021;28;20237;-84
2022/06/05 12:41:48;;;;;;;4.35;4.05;;;;;;;;;;5014362;28;20207;-83
2022/06/05 12:44:23;;;;;;;4.78;4.47;;;;;;;;;;5014190;28;20649;-83
2022/06/05 12:46:59;;;;;;;4.28;3.97;;;;;;;;;;5013425;28;20230;-84
2022/06/05 12:49:37;;;;;;;4.68;4.38;;;;;;;;;;5023692;28;20317;-84
2022/06/05 12:52:26;;;;;;;3.92;3.63;;;;;;;;;;5033751;28;20213;-84
2022/06/05 12:54:58;;;;;;;3.92;3.45;;;;;;;;;;5037059;28;20230;-83
2022/06/05 12:57:33;;;;;;;4.38;4.07;;;;;;;;;;5045016;28;20202;-83
2022/06/05 13:00:07;;;;;;;4.80;4.35;;;;;;;;;;5047827;28;20929;-83
2022/06/05 13:02:40;;;;;;;5.35;4.95;;;;;;;;;;5047498;28;20233;-83
2022/06/05 13:05:21;;;;;;;4.97;4.68;;;;;;;;;;5038677;28;20260;-84
2022/06/05 13:07:55;;;;;;;4.88;4.57;;;;;;;;;;5039620;28;20635;-84
2022/06/05 13:10:31;;;;;;;4.97;4.57;;;;;;;;;;5041410;28;20182;-84
2022/06/05 13:13:10;;;;;;;4.93;4.63;;;;;;;;;;5039499;28;20285;-83
2022/06/05 13:15:44;;;;;;;5.55;5.05;;;;;;;;;;5039404;28;20213;-84
2022/06/05 13:18:21;;;;;;;4.60;4.30;;;;;;;;;;5038657;28;20206;-84
2022/06/05 13:21:03;;;;;;;5.03;4.70;;;;;;;;;;5016764;28;20222;-84
2022/06/05 13:23:38;;;;;;;5.88;5.45;;;;;;;;;;5015772;28;20249;-83
2022/06/05 13:26:15;;;;;;;5.70;5.20;;;;;;;;;;5017799;28;20260;-83
2022/06/05 13:28:51;;;;;;;5.80;5.40;;;;;;;;;;5020204;28;20222;-83
2022/06/05 13:31:29;;;;;;;6.13;5.68;;;;;;;;;;5014691;28;20635;-83
2022/06/05 13:34:06;;;;;;;5.68;5.28;;;;;;;;;;5015564;28;20199;-83
2022/06/05 13:36:41;;;;;;;4.70;4.40;;;;;;;;;;5014752;28;20223;-83
2022/06/05 13:39:22;;;;;;;5.95;5.55;;;;;;;;;;5013758;28;20218;-84
2022/06/05 13:41:56;;;;;;;6.47;5.93;;;;;;;;;;5016369;28;20394;-83
2022/06/05 13:44:25;;;;;;;5.35;4.95;;;;;;;;;;5014266;28;20265;-81
2022/06/05 13:47:08;;;;;;;5.97;5.57;;;;;;;;;;5014586;28;20201;-83
2022/06/05 13:49:44;;;;;;;5.57;5.18;;;;;;;;;;5025251;28;20277;-82
2022/06/05 13:52:29;;;;;;;5.68;5.18;;;;;;;;;;5033964;28;20252;-84
2022/06/05 13:55:05;;;;;;;5.88;5.45;;;;;;;;;;5032125;28;20234;-83
2022/06/05 13:57:53;;;;;;;4.35;4.05;;;;;;;;;;5034597;28;20202;-83
2022/06/05 14:00:24;;;;;;;5.07;4.78;;;;;;;;;;5038303;28;20213;-84
2022/06/05 14:03:06;;;;;;;5.60;5.20;;;;;;;;;;5020639;28;20783;-83
2022/06/05 14:05:42;;;;;;;5.47;5.07;;;;;;;;;;5018111;28;20603;-83
2022/06/05 14:08:15;;;;;;;5.55;5.15;;;;;;;;;;5018798;28;20246;-83
2022/06/05 14:10:57;;;;;;;5.75;5.25;;;;;;;;;;5021633;28;20904;-83
2022/06/05 14:13:26;;;;;;;4.95;4.55;;;;;;;;;;5019829;28;20230;-83
2022/06/05 14:15:56;;;;;;;4.25;3.95;;;;;;;;;;5021701;28;20206;-82
2022/06/05 14:18:37;;;;;;;4.60;4.30;;;;;;;;;;5023883;28;20338;-83
2022/06/05 14:21:06;;;;;;;4.15;3.85;;;;;;;;;;5048822;28;20185;-82
2022/06/05 14:23:34;;;;;;;4.80;4.18;;;;;;;;;;5056576;28;20225;-82
2022/06/05 14:26:05;;;;;;;3.85;3.63;;;;;;;;;;5060897;28;20205;-83
2022/06/05 14:28:39;;;;;;;4.25;4.03;;;;;;;;;;5057522;28;20256;-83
2022/06/05 14:31:14;;;;;;;4.55;4.25;;;;;;;;;;5056675;28;20208;-84
2022/06/05 14:33:46;;;;;;;4.75;4.35;;;;;;;;;;5055966;28;20232;-83
2022/06/05 14:36:23;;;;;;;4.97;4.57;;;;;;;;;;5055648;28;20194;-84
2022/06/05 14:38:56;;;;;;;3.45;3.25;;;;;;;;;;5056022;28;20217;-83
2022/06/05 14:41:29;;;;;;;3.60;3.38;;;;;;;;;;5055440;28;20648;-84
2022/06/05 14:44:03;;;;;;;4.57;4.28;;;;;;;;;;5055392;28;20228;-83
2022/06/05 14:46:39;;;;;;;9.35;3.90;;;;;;;;;;5056152;28;20237;-83
2022/06/05 14:49:22;;;;;;;4.90;4.38;;;;;;;;;;5041767;28;20270;-84
2022/06/05 14:51:55;;;;;;;3.60;3.40;;;;;;;;;;5015089;28;20635;-82
2022/06/05 15:00:19;;;;;;;3.92;3.72;;;;;;;;;;5054565;28;20706;-84
2022/06/05 15:02:52;;;;;;;5.65;5.15;;;;;;;;;;5054705;28;20236;-84
2022/06/05 15:05:24;;;;;;;5.13;4.82;;;;;;;;;;5054779;28;20285;-82
2022/06/05 15:07:55;;;;;;;4.75;4.45;;;;;;;;;;5043593;22;20227;-85
2022/06/05 15:10:34;;;;;;;4.15;3.88;;;;;;;;;;5020679;28;20237;-84
2022/06/05 15:13:17;;;;;;;4.88;4.47;;;;;;;;;;5020228;28;20569;-83
2022/06/05 15:15:53;;;;;;;4.20;4.00;;;;;;;;;;5019127;28;20218;-84
2022/06/05 15:18:23;;;;;;;4.60;4.25;;;;;;;;;;5019825;28;20261;-83
2022/06/05 15:21:10;;;;;;;5.60;5.10;;;;;;;;;;5020093;28;20210;-84
2022/06/05 15:23:47;;;;;;;5.90;5.38;;;;;;;;;;5020505;28;20198;-85
2022/06/05 15:26:23;;;;;;;4.68;4.32;;;;;;;;;;5020462;28;20683;-86
2022/06/05 15:29:14;;;;;;;4.65;4.10;;;;;;;;;;5022331;28;20237;-86
2022/06/05 15:31:51;;;;;;;3.95;3.67;;;;;;;;;;5021066;28;20210;-85
2022/06/05 15:34:45;;;;;;;3.47;3.28;;;;;;;;;;5020189;28;20194;-84
2022/06/05 15:37:29;;;;;;;2.80;2.70;;;;;;;;;;5019707;28;20219;-84
2022/06/05 15:40:02;;;;;;;3.60;3.40;;;;;;;;;;5020418;28;20274;-85
2022/06/05 15:42:34;;;;;;;2.88;2.67;;;;;;;;;;5021210;28;20191;-84
2022/06/05 15:45:18;;;;;;;2.72;2.60;;;;;;;;;;5040600;23;20237;-80